Time;durP1;ratioP1;P1;durP2;ratioP2;P2;SDS_P1;SDS_P2;PMS_P1;PMS_P2;Temp;Humidity;BMP_temperature;BMP_pressure;BME280_temperature;BME280_humidity;BME280_pressure;Samples;Min_cycle;Max_cycle;Signal;HPM_P1;HPM_P2
2022/12/19 00:01:25;;;;;;;19.20;12.13;;;20.20;54.60;;;;;;5048682;28;20032;-75
2022/12/19 00:04:11;;;;;;;21.08;11.82;;;20.20;54.20;;;;;;5043633;28;20033;-74
2022/12/19 00:06:38;;;;;;;26.15;11.63;;;20.20;53.80;;;;;;5048286;28;20051;-75
2022/12/19 00:09:04;;;;;;;22.85;12.50;;;20.20;53.50;;;;;;5049264;28;20021;-75
2022/12/19 00:11:31;;;;;;;20.58;11.48;;;20.20;53.50;;;;;;5050171;28;20067;-74
2022/12/19 00:13:57;;;;;;;21.58;12.70;;;20.10;53.60;;;;;;5051986;28;20075;-75
2022/12/19 00:16:26;;;;;;;20.00;12.00;;;20.00;53.30;;;;;;5051115;28;20054;-75
2022/12/19 00:18:54;;;;;;;20.98;11.25;;;20.00;53.20;;;;;;5049282;28;20528;-75
2022/12/19 00:21:22;;;;;;;18.05;11.05;;;20.00;53.50;;;;;;5052871;28;20021;-74
2022/12/19 00:23:49;;;;;;;22.13;11.23;;;19.90;53.60;;;;;;5035365;28;20040;-75
2022/12/19 00:26:28;;;;;;;20.98;11.38;;;19.90;53.50;;;;;;5052897;28;20033;-75
2022/12/19 00:28:57;;;;;;;21.90;12.15;;;20.00;53.60;;;;;;5050498;28;20394;-75
2022/12/19 00:31:25;;;;;;;20.48;11.00;;;19.90;53.30;;;;;;5050556;28;20397;-75
2022/12/19 00:33:51;;;;;;;22.98;11.13;;;19.90;53.30;;;;;;5051599;28;20040;-75
2022/12/19 00:36:20;;;;;;;17.67;10.85;;;20.00;53.00;;;;;;5051780;28;20048;-74
2022/12/19 00:38:46;;;;;;;21.55;11.82;;;20.10;52.70;;;;;;5051117;28;20048;-74
2022/12/19 00:41:15;;;;;;;25.13;12.77;;;20.10;52.70;;;;;;5034704;28;20435;-75
2022/12/19 00:43:58;;;;;;;23.15;12.85;;;20.00;52.60;;;;;;5051851;28;20485;-78
2022/12/19 00:46:24;;;;;;;31.90;13.50;;;19.90;52.60;;;;;;4978468;28;20051;-79
2022/12/19 00:48:51;;;;;;;27.52;12.75;;;20.00;53.50;;;;;;4969384;28;20476;-74
2022/12/19 00:51:20;;;;;;;33.85;12.88;;;19.90;54.00;;;;;;4966675;28;20074;-74
2022/12/19 00:53:48;;;;;;;30.85;12.55;;;20.00;53.80;;;;;;4944636;28;20041;-74
2022/12/19 00:56:16;;;;;;;21.60;12.50;;;20.10;53.80;;;;;;4987623;28;20081;-74
2022/12/19 00:58:42;;;;;;;23.33;12.15;;;20.10;53.90;;;;;;4991741;28;20045;-73
2022/12/19 01:01:20;;;;;;;23.58;11.70;;;20.10;53.80;;;;;;4990219;28;20414;-74
2022/12/19 01:03:46;;;;;;;20.42;12.02;;;20.10;54.00;;;;;;4973236;28;20513;-74
2022/12/19 01:06:12;;;;;;;22.75;11.95;;;20.10;54.00;;;;;;4974907;28;20027;-74
2022/12/19 01:08:39;;;;;;;25.65;12.68;;;20.00;54.40;;;;;;4990581;28;20745;-74
2022/12/19 01:11:06;;;;;;;23.95;12.45;;;20.10;54.10;;;;;;4987046;28;20384;-74
2022/12/19 01:13:33;;;;;;;19.67;12.45;;;20.00;54.20;;;;;;4988003;28;20031;-74
2022/12/19 01:16:04;;;;;;;24.20;12.30;;;20.00;54.20;;;;;;4990521;28;20410;-74
2022/12/19 01:18:30;;;;;;;23.92;12.70;;;20.00;54.50;;;;;;4984536;28;20057;-74
2022/12/19 01:21:04;;;;;;;23.90;12.25;;;20.10;54.40;;;;;;4991202;28;20023;-74
2022/12/19 01:23:33;;;;;;;21.92;12.15;;;20.00;54.40;;;;;;4989706;28;20088;-74
2022/12/19 01:25:58;;;;;;;28.00;12.77;;;20.00;54.70;;;;;;4972808;28;20050;-74
2022/12/19 01:28:25;;;;;;;23.20;12.23;;;19.90;54.20;;;;;;4973089;28;20038;-74
2022/12/19 01:30:52;;;;;;;23.92;11.98;;;19.90;54.30;;;;;;4972959;28;20050;-74
2022/12/19 01:33:19;;;;;;;21.05;12.05;;;20.00;54.60;;;;;;4974071;28;20033;-74
2022/12/19 01:35:47;;;;;;;24.55;12.20;;;19.90;54.50;;;;;;4988911;28;20164;-75
2022/12/19 01:38:15;;;;;;;21.10;12.40;;;19.90;54.70;;;;;;4972284;28;20113;-73
2022/12/19 01:40:52;;;;;;;21.95;11.93;;;19.90;54.60;;;;;;4986618;28;20449;-74
2022/12/19 01:43:19;;;;;;;22.00;11.90;;;19.90;54.60;;;;;;4992378;28;20108;-74
2022/12/19 01:45:55;;;;;;;18.77;11.27;;;19.90;54.20;;;;;;4986543;28;20482;-74
2022/12/19 01:48:30;;;;;;;21.48;11.30;;;19.90;54.30;;;;;;4985371;28;20450;-74
2022/12/19 01:51:03;;;;;;;23.02;11.70;;;19.90;54.50;;;;;;4989370;28;20043;-75
2022/12/19 01:53:34;;;;;;;22.23;11.68;;;19.90;54.60;;;;;;4987889;28;20397;-74
2022/12/19 01:56:05;;;;;;;21.63;11.75;;;19.90;54.60;;;;;;4988250;28;20487;-74
2022/12/19 01:58:31;;;;;;;23.08;12.23;;;19.90;54.30;;;;;;4989265;28;20483;-74
2022/12/19 02:00:58;;;;;;;22.48;12.25;;;19.90;54.50;;;;;;4981842;28;20074;-74
2022/12/19 02:03:27;;;;;;;18.75;11.18;;;19.90;54.60;;;;;;4992076;28;20022;-75
2022/12/19 02:05:54;;;;;;;20.85;11.48;;;19.90;54.50;;;;;;4992128;28;20026;-75
2022/12/19 02:08:21;;;;;;;19.60;11.60;;;19.90;54.50;;;;;;4974388;28;20045;-75
2022/12/19 02:10:48;;;;;;;18.65;11.40;;;19.90;54.40;;;;;;4973757;28;20054;-75
2022/12/19 02:13:14;;;;;;;19.02;11.50;;;19.90;54.70;;;;;;4990186;28;20057;-75
2022/12/19 02:15:44;;;;;;;29.42;12.52;;;19.90;54.60;;;;;;4990128;28;20038;-77
2022/12/19 02:18:47;;;;;;;24.63;11.15;;;20.00;54.60;;;;;;4976835;28;20077;-74
2022/12/19 02:21:24;;;;;;;25.10;15.93;;;19.80;53.60;;;;;;4962456;28;20487;-75
2022/12/19 02:24:10;;;;;;;22.90;14.95;;;19.40;44.30;;;;;;4979203;28;20078;-75
2022/12/19 02:27:07;;;;;;;28.23;14.20;;;19.30;47.60;;;;;;4979824;28;20066;-75
2022/12/19 02:29:49;;;;;;;32.17;13.30;;;19.30;48.90;;;;;;4990907;28;20398;-74
2022/12/19 02:32:28;;;;;;;24.08;13.15;;;19.40;49.50;;;;;;4990652;28;20498;-75
2022/12/19 02:34:58;;;;;;;23.73;12.13;;;19.40;49.90;;;;;;4974459;28;20068;-74
2022/12/19 02:37:34;;;;;;;22.38;12.30;;;19.40;50.30;;;;;;4969876;28;20499;-74
2022/12/19 02:40:14;;;;;;;21.80;12.55;;;19.40;50.40;;;;;;4997070;28;20449;-74
2022/12/19 02:42:44;;;;;;;19.50;12.05;;;19.40;50.60;;;;;;4972861;28;20503;-74
2022/12/19 02:45:13;;;;;;;18.95;12.43;;;19.50;50.80;;;;;;4983194;28;20398;-74
2022/12/19 02:47:41;;;;;;;19.15;12.27;;;19.50;50.80;;;;;;5002794;28;20518;-75
2022/12/19 02:50:08;;;;;;;19.90;12.10;;;19.50;50.70;;;;;;4985238;28;20037;-74
2022/12/19 02:52:34;;;;;;;21.20;11.93;;;19.50;50.70;;;;;;4960394;28;20104;-75
2022/12/19 02:55:06;;;;;;;23.52;10.73;;;19.50;50.60;;;;;;4996456;28;20025;-74
2022/12/19 02:57:42;;;;;;;17.95;11.68;;;19.50;50.80;;;;;;4984100;28;20062;-74
2022/12/19 03:00:19;;;;;;;18.33;10.75;;;19.50;51.00;;;;;;4991512;28;20034;-75
2022/12/19 03:03:14;;;;;;;20.15;11.52;;;19.50;51.00;;;;;;4993704;28;20023;-74
2022/12/19 03:05:49;;;;;;;17.23;10.75;;;19.40;51.20;;;;;;4993358;28;20033;-75
2022/12/19 03:08:27;;;;;;;17.75;10.73;;;19.40;51.30;;;;;;4980075;28;20034;-75
2022/12/19 03:11:13;;;;;;;18.83;11.45;;;19.40;51.60;;;;;;4983041;28;20030;-75
2022/12/19 03:13:56;;;;;;;17.63;10.93;;;19.40;51.70;;;;;;4991750;28;20049;-75
2022/12/19 03:16:23;;;;;;;23.77;11.38;;;19.40;51.70;;;;;;4987926;28;20038;-75
2022/12/19 03:18:53;;;;;;;20.63;11.40;;;19.40;51.50;;;;;;4993424;28;20080;-74
2022/12/19 03:21:22;;;;;;;17.92;10.80;;;19.40;51.90;;;;;;4989135;28;20022;-74
2022/12/19 03:23:50;;;;;;;19.05;10.73;;;19.40;52.00;;;;;;4991979;28;20027;-74
2022/12/19 03:26:19;;;;;;;18.23;10.85;;;19.40;52.20;;;;;;4990032;28;20022;-74
2022/12/19 03:28:49;;;;;;;18.67;10.10;;;19.40;52.10;;;;;;4995876;28;20039;-74
2022/12/19 03:31:28;;;;;;;24.98;11.55;;;19.40;52.30;;;;;;4994452;28;20101;-76
2022/12/19 03:34:06;;;;;;;17.95;10.18;;;19.40;52.20;;;;;;4976361;28;20130;-74
2022/12/19 03:36:42;;;;;;;18.05;10.40;;;19.40;52.40;;;;;;4997836;28;20156;-74
2022/12/19 03:39:11;;;;;;;18.63;9.98;;;19.30;52.50;;;;;;4975976;28;20486;-74
2022/12/19 03:44:27;;;;;;;16.05;9.73;;;19.30;52.70;;;;;;4993589;28;20029;-74
2022/12/19 03:47:04;;;;;;;19.25;10.73;;;19.30;52.70;;;;;;4995645;28;20042;-75
2022/12/19 03:49:31;;;;;;;18.02;10.00;;;19.30;52.70;;;;;;4994064;28;20045;-74
2022/12/19 03:52:05;;;;;;;20.80;10.35;;;19.30;53.30;;;;;;4987036;28;20073;-74
2022/12/19 03:54:37;;;;;;;17.58;10.00;;;19.30;53.10;;;;;;4991983;28;20042;-74
2022/12/19 03:57:09;;;;;;;17.52;9.80;;;19.30;53.10;;;;;;4993380;28;20042;-75
2022/12/19 03:59:43;;;;;;;17.70;10.85;;;19.30;52.90;;;;;;4977382;28;20027;-74
2022/12/19 04:02:10;;;;;;;17.50;10.25;;;19.30;52.80;;;;;;4992978;28;20688;-74
2022/12/19 04:04:43;;;;;;;18.65;10.23;;;19.30;53.20;;;;;;4993330;28;20027;-74
2022/12/19 04:07:11;;;;;;;14.73;9.38;;;19.30;53.40;;;;;;4997935;28;20478;-75
2022/12/19 04:09:39;;;;;;;16.60;10.25;;;19.30;53.50;;;;;;4991493;28;20034;-75
2022/12/19 04:12:11;;;;;;;17.15;9.95;;;19.30;53.50;;;;;;4987457;28;20449;-74
2022/12/19 04:14:38;;;;;;;14.25;9.40;;;19.30;53.50;;;;;;4993183;28;20034;-74
2022/12/19 04:17:29;;;;;;;18.00;9.90;;;19.30;53.60;;;;;;4993708;28;20034;-74
2022/12/19 04:20:05;;;;;;;17.23;9.95;;;19.30;53.00;;;;;;4991819;28;20613;-74
2022/12/19 04:22:40;;;;;;;17.58;10.25;;;19.30;53.90;;;;;;4971990;28;20056;-75
2022/12/19 04:25:10;;;;;;;15.07;9.68;;;19.30;53.80;;;;;;4993525;28;20034;-74
2022/12/19 04:27:42;;;;;;;18.75;9.93;;;19.30;53.60;;;;;;4978134;28;20026;-74
2022/12/19 04:30:11;;;;;;;18.17;9.85;;;19.20;53.20;;;;;;5007251;28;20062;-74
2022/12/19 04:32:39;;;;;;;17.63;10.02;;;19.20;53.60;;;;;;4992948;28;20030;-75
2022/12/19 04:35:05;;;;;;;17.25;10.30;;;19.20;54.10;;;;;;4974680;28;20029;-75
2022/12/19 04:37:31;;;;;;;17.83;10.25;;;19.20;54.10;;;;;;4995816;28;20022;-75
2022/12/19 04:39:57;;;;;;;16.35;9.80;;;19.20;53.90;;;;;;4992344;28;20029;-75
2022/12/19 04:42:23;;;;;;;14.45;8.93;;;19.20;54.40;;;;;;4975630;28;20103;-74
2022/12/19 04:44:49;;;;;;;17.30;9.60;;;19.20;53.80;;;;;;4991349;28;20502;-74
2022/12/19 04:47:14;;;;;;;17.95;9.98;;;19.20;55.10;;;;;;4992692;28;20023;-74
2022/12/19 04:49:40;;;;;;;15.35;8.93;;;19.20;54.50;;;;;;4994176;28;20598;-75
2022/12/19 04:52:06;;;;;;;18.80;9.30;;;19.20;54.50;;;;;;4989645;28;20398;-74
2022/12/19 04:54:33;;;;;;;14.32;9.32;;;19.20;54.50;;;;;;4992614;28;20030;-74
2022/12/19 04:56:59;;;;;;;13.05;8.82;;;19.20;54.10;;;;;;4992504;28;20030;-74
2022/12/19 04:59:25;;;;;;;17.83;9.45;;;19.20;54.60;;;;;;4989893;28;20030;-74
2022/12/19 05:01:50;;;;;;;16.08;9.35;;;19.20;54.00;;;;;;4992238;28;20033;-74
2022/12/19 05:04:16;;;;;;;15.73;9.85;;;19.20;53.50;;;;;;4990193;28;20022;-75
2022/12/19 05:06:42;;;;;;;17.30;9.98;;;19.20;54.00;;;;;;4988859;28;20026;-75
2022/12/19 05:09:10;;;;;;;15.57;9.57;;;19.20;54.30;;;;;;4990126;28;20037;-75
2022/12/19 05:11:37;;;;;;;15.57;9.40;;;19.20;54.10;;;;;;4989741;28;20037;-74
2022/12/19 05:14:02;;;;;;;16.92;9.60;;;19.20;54.50;;;;;;4990365;28;20034;-75
2022/12/19 05:16:28;;;;;;;15.13;9.57;;;19.20;54.40;;;;;;4987495;28;20133;-75
2022/12/19 05:18:54;;;;;;;16.83;8.95;;;19.20;54.50;;;;;;5010601;28;20034;-74
2022/12/19 05:21:21;;;;;;;15.13;9.32;;;19.10;54.70;;;;;;4989169;28;20546;-74
2022/12/19 05:23:48;;;;;;;15.88;8.68;;;19.20;54.50;;;;;;4979373;28;20026;-75
2022/12/19 05:26:14;;;;;;;16.40;9.45;;;19.10;54.90;;;;;;4992050;28;20027;-75
2022/12/19 05:28:41;;;;;;;16.77;9.40;;;19.10;54.80;;;;;;4992716;28;20030;-75
2022/12/19 05:31:14;;;;;;;19.13;10.23;;;19.20;54.80;;;;;;4988809;28;20037;-75
2022/12/19 05:33:41;;;;;;;16.95;9.70;;;19.20;55.20;;;;;;4975552;28;20152;-74
2022/12/19 05:36:07;;;;;;;21.17;9.30;;;19.10;55.10;;;;;;4991731;28;20034;-75
2022/12/19 05:38:34;;;;;;;18.55;9.60;;;19.10;55.40;;;;;;4975332;28;20046;-75
2022/12/19 05:41:05;;;;;;;14.70;8.98;;;19.10;55.50;;;;;;4973091;28;20052;-75
2022/12/19 05:43:30;;;;;;;15.20;9.32;;;19.10;55.30;;;;;;4991128;28;20364;-75
2022/12/19 05:45:56;;;;;;;18.02;9.38;;;19.10;55.10;;;;;;4994735;28;20026;-75
2022/12/19 05:48:22;;;;;;;14.48;9.43;;;19.10;55.30;;;;;;4991881;28;20034;-75
2022/12/19 05:50:49;;;;;;;14.05;8.90;;;19.10;55.20;;;;;;4991826;28;20030;-74
2022/12/19 05:53:18;;;;;;;14.05;8.82;;;19.10;54.50;;;;;;4991648;28;20026;-75
2022/12/19 05:55:44;;;;;;;14.18;8.43;;;19.10;55.00;;;;;;4991111;28;20041;-74
2022/12/19 05:58:10;;;;;;;15.88;9.57;;;19.10;55.10;;;;;;4992116;28;20106;-75
2022/12/19 06:00:36;;;;;;;15.32;9.05;;;19.10;55.40;;;;;;4973905;28;20109;-75
2022/12/19 06:03:02;;;;;;;14.20;8.93;;;19.10;55.40;;;;;;4991430;28;20018;-75
2022/12/19 06:05:27;;;;;;;15.30;8.55;;;19.10;55.50;;;;;;4974496;28;20041;-75
2022/12/19 06:07:53;;;;;;;14.50;9.07;;;19.10;55.50;;;;;;4986505;28;20102;-76
2022/12/19 06:10:19;;;;;;;17.85;10.20;;;19.10;55.60;;;;;;4991108;28;20493;-75
2022/12/19 06:12:45;;;;;;;18.90;9.23;;;19.10;52.80;;;;;;4991621;28;20093;-75
2022/12/19 06:15:11;;;;;;;19.08;9.52;;;19.20;54.50;;;;;;4987995;28;20031;-74
2022/12/19 06:17:36;;;;;;;15.38;8.80;;;19.10;55.60;;;;;;4980321;28;20509;-75
2022/12/19 06:20:03;;;;;;;15.60;8.70;;;19.10;55.20;;;;;;5011174;28;20050;-75
2022/12/19 06:22:28;;;;;;;20.98;8.93;;;19.10;55.70;;;;;;4992261;28;20496;-75
2022/12/19 06:24:54;;;;;;;18.60;9.63;;;19.10;55.70;;;;;;4983354;28;20105;-75
2022/12/19 06:27:20;;;;;;;14.85;9.07;;;19.10;55.70;;;;;;4999975;28;20510;-75
2022/12/19 06:29:46;;;;;;;16.50;8.80;;;19.10;55.70;;;;;;4992046;28;20026;-75
2022/12/19 06:32:12;;;;;;;16.63;8.48;;;19.10;55.70;;;;;;4986287;28;20482;-75
2022/12/19 06:34:37;;;;;;;20.83;8.93;;;19.10;55.70;;;;;;4995550;28;20172;-75
2022/12/19 06:37:03;;;;;;;17.92;9.30;;;19.10;55.70;;;;;;5000004;28;20030;-74
2022/12/19 06:39:30;;;;;;;16.27;9.35;;;19.10;55.70;;;;;;4998023;28;20382;-74
2022/12/19 06:44:40;;;;;;;17.15;9.13;;;19.10;55.50;;;;;;5020647;22;20091;-73
2022/12/19 06:47:06;;;;;;;16.80;8.90;;;19.00;55.60;;;;;;5033798;28;20064;-73
2022/12/19 06:49:31;;;;;;;13.68;8.57;;;19.10;55.60;;;;;;5038419;28;20025;-73
2022/12/19 06:51:57;;;;;;;13.95;8.10;;;19.10;55.60;;;;;;5040397;28;20021;-70
2022/12/19 06:54:23;;;;;;;16.88;8.30;;;19.10;55.50;;;;;;5038599;28;20034;-70
2022/12/19 06:56:49;;;;;;;15.15;8.60;;;19.10;55.40;;;;;;5027336;28;20087;-70
2022/12/19 06:59:15;;;;;;;15.98;8.27;;;19.10;55.50;;;;;;5030554;28;20154;-70
2022/12/19 07:02:04;;;;;;;15.75;9.05;;;19.10;55.60;;;;;;5033513;28;20494;-71
2022/12/19 07:04:58;;;;;;;17.63;8.75;;;19.10;55.60;;;;;;5018819;28;20026;-70
2022/12/19 07:07:24;;;;;;;15.85;9.40;;;19.10;55.60;;;;;;5033187;28;20370;-70
2022/12/19 07:09:50;;;;;;;17.13;8.95;;;19.00;55.60;;;;;;5024629;28;20033;-71
2022/12/19 07:12:15;;;;;;;14.57;8.90;;;19.10;55.60;;;;;;5030282;28;20037;-71
2022/12/19 07:14:41;;;;;;;14.68;9.18;;;19.10;55.40;;;;;;5023873;28;20105;-70
2022/12/19 07:17:07;;;;;;;14.27;8.40;;;19.00;55.50;;;;;;5028354;28;20461;-70
2022/12/19 07:19:34;;;;;;;13.93;8.63;;;19.00;55.50;;;;;;5018652;28;20037;-71
2022/12/19 07:22:01;;;;;;;14.23;8.23;;;19.00;55.60;;;;;;5020790;28;20500;-71
2022/12/19 07:24:27;;;;;;;13.30;8.18;;;19.10;55.60;;;;;;5032467;28;20471;-70
2022/12/19 07:26:53;;;;;;;15.48;8.63;;;19.00;55.50;;;;;;5007434;28;20030;-70
2022/12/19 07:29:18;;;;;;;13.73;8.65;;;19.00;55.50;;;;;;5023626;28;20104;-71
2022/12/19 07:31:44;;;;;;;16.42;8.63;;;19.00;55.40;;;;;;5027468;28;20041;-71
2022/12/19 07:34:10;;;;;;;14.00;8.60;;;19.00;55.40;;;;;;5029941;28;20530;-70
2022/12/19 07:36:36;;;;;;;14.20;8.45;;;19.00;55.40;;;;;;5023131;28;20386;-71
2022/12/19 07:39:02;;;;;;;13.63;8.48;;;19.00;55.30;;;;;;5032295;28;20389;-70
2022/12/19 07:41:27;;;;;;;14.93;8.02;;;19.00;55.30;;;;;;5023303;28;20430;-70
2022/12/19 07:43:53;;;;;;;16.70;9.05;;;19.00;55.40;;;;;;5022226;28;20033;-71
2022/12/19 07:46:20;;;;;;;15.30;8.10;;;19.00;55.40;;;;;;5016713;28;20105;-70
2022/12/19 07:48:46;;;;;;;15.55;9.13;;;19.00;55.30;;;;;;5032737;28;20025;-71
2022/12/19 07:51:12;;;;;;;13.60;8.57;;;19.00;55.60;;;;;;5019507;28;20040;-71
2022/12/19 07:53:38;;;;;;;14.15;7.80;;;19.00;55.50;;;;;;5025885;28;20030;-71
2022/12/19 07:56:04;;;;;;;14.20;8.68;;;19.00;55.70;;;;;;5026858;28;20116;-71
2022/12/19 07:58:29;;;;;;;14.68;8.43;;;19.00;55.70;;;;;;5030932;28;20512;-71
2022/12/19 08:00:57;;;;;;;17.13;8.35;;;19.00;55.80;;;;;;5027521;28;20021;-71
2022/12/19 08:03:23;;;;;;;14.80;8.60;;;19.00;55.80;;;;;;5032704;28;20030;-71
2022/12/19 08:05:49;;;;;;;17.75;9.57;;;19.00;55.80;;;;;;5024384;28;20026;-71
2022/12/19 08:08:16;;;;;;;14.90;8.63;;;19.00;55.80;;;;;;5032425;28;20026;-70
2022/12/19 08:10:42;;;;;;;12.68;7.85;;;19.00;55.80;;;;;;5030305;28;20036;-71
2022/12/19 08:13:08;;;;;;;14.60;8.48;;;19.00;55.90;;;;;;5032497;28;20033;-70
2022/12/19 08:15:34;;;;;;;13.63;8.48;;;19.00;55.80;;;;;;5025929;28;20091;-71
2022/12/19 08:18:01;;;;;;;14.50;8.65;;;19.00;55.70;;;;;;5032190;28;20437;-71
2022/12/19 08:20:27;;;;;;;14.73;8.30;;;19.00;55.70;;;;;;5029369;28;20132;-70
2022/12/19 08:22:53;;;;;;;17.20;8.40;;;19.00;55.70;;;;;;5024927;28;20025;-71
2022/12/19 08:25:19;;;;;;;17.50;8.57;;;19.00;55.80;;;;;;5027456;28;20079;-71
2022/12/19 08:27:44;;;;;;;15.40;8.82;;;19.00;55.90;;;;;;5030502;28;20033;-71
2022/12/19 08:30:12;;;;;;;15.57;8.27;;;19.00;56.00;;;;;;5021744;28;20328;-71
2022/12/19 08:32:39;;;;;;;13.57;8.73;;;19.00;55.80;;;;;;5030440;28;20535;-71
2022/12/19 08:35:06;;;;;;;13.98;7.97;;;19.00;55.90;;;;;;5029785;28;20025;-72
2022/12/19 08:37:32;;;;;;;14.13;8.60;;;19.00;56.00;;;;;;5024134;28;20109;-71
2022/12/19 08:39:57;;;;;;;14.48;7.75;;;19.00;55.30;;;;;;5029988;28;20145;-71
2022/12/19 08:42:23;;;;;;;13.15;8.27;;;19.00;56.00;;;;;;5022551;28;20025;-71
2022/12/19 08:44:49;;;;;;;13.88;8.05;;;19.00;56.00;;;;;;5018932;28;20029;-71
2022/12/19 08:47:15;;;;;;;17.00;7.93;;;19.00;55.60;;;;;;5031838;28;20017;-71
2022/12/19 08:49:41;;;;;;;14.35;8.00;;;19.00;56.10;;;;;;5031538;28;20500;-71
2022/12/19 08:52:06;;;;;;;14.27;8.25;;;19.00;56.20;;;;;;5024423;28;20031;-71
2022/12/19 08:54:32;;;;;;;13.38;8.30;;;19.00;56.20;;;;;;5029633;28;20037;-71
2022/12/19 08:56:58;;;;;;;12.68;8.00;;;19.00;56.10;;;;;;5029724;28;20060;-71
2022/12/19 08:59:24;;;;;;;13.98;7.90;;;19.00;56.10;;;;;;5023942;28;20084;-71
2022/12/19 09:01:50;;;;;;;15.18;8.35;;;19.00;56.00;;;;;;5029856;28;20600;-70
2022/12/19 09:04:16;;;;;;;15.27;8.10;;;19.00;56.00;;;;;;5028915;28;20099;-71
2022/12/19 09:06:42;;;;;;;18.05;8.35;;;19.00;56.10;;;;;;5029871;28;20080;-71
2022/12/19 09:09:07;;;;;;;13.50;8.13;;;19.00;56.10;;;;;;5029749;28;20057;-71
2022/12/19 09:11:33;;;;;;;13.77;7.80;;;19.00;56.00;;;;;;5025563;28;20041;-71
2022/12/19 09:13:59;;;;;;;14.95;7.97;;;19.00;56.00;;;;;;5026877;28;20037;-71
2022/12/19 09:16:27;;;;;;;12.80;8.07;;;18.90;55.90;;;;;;5024012;28;20029;-71
2022/12/19 09:18:55;;;;;;;15.10;9.05;;;19.00;55.80;;;;;;5030475;28;20037;-71
2022/12/19 09:21:23;;;;;;;17.00;8.57;;;19.00;55.80;;;;;;5022952;28;20064;-71
2022/12/19 09:23:51;;;;;;;18.05;7.90;;;19.00;56.10;;;;;;5022195;28;20021;-71
2022/12/19 09:26:18;;;;;;;11.52;7.15;;;19.00;55.90;;;;;;5024858;28;20521;-71
2022/12/19 09:28:45;;;;;;;12.90;7.53;;;19.00;56.20;;;;;;5026782;28;20397;-71
2022/12/19 09:31:15;;;;;;;14.88;8.32;;;19.00;56.20;;;;;;5019689;28;20047;-71
2022/12/19 09:33:41;;;;;;;13.70;7.95;;;19.00;56.20;;;;;;5030069;28;20080;-71
2022/12/19 09:36:12;;;;;;;15.10;8.05;;;19.00;56.10;;;;;;5020567;28;20033;-71
2022/12/19 09:38:38;;;;;;;13.02;7.68;;;19.00;56.20;;;;;;5029558;28;20037;-71
2022/12/19 09:41:12;;;;;;;13.95;7.88;;;19.00;55.90;;;;;;5028222;28;20018;-71
2022/12/19 09:44:05;;;;;;;12.52;7.78;;;19.00;56.10;;;;;;5028756;28;20044;-71
2022/12/19 09:46:59;;;;;;;13.35;7.90;;;19.00;56.10;;;;;;5019180;28;20034;-71
2022/12/19 09:49:31;;;;;;;14.63;8.30;;;19.00;55.60;;;;;;5011824;28;20057;-72
2022/12/19 09:52:10;;;;;;;16.40;8.25;;;19.00;55.80;;;;;;5023603;28;20481;-72
2022/12/19 09:54:41;;;;;;;18.77;11.32;;;19.00;56.30;;;;;;5023802;28;20026;-70
2022/12/19 09:57:31;;;;;;;18.80;9.95;;;19.00;54.60;;;;;;5021124;28;20029;-70
2022/12/19 10:00:10;;;;;;;29.27;11.27;;;19.00;54.40;;;;;;5012179;28;20029;-70
2022/12/19 10:02:45;;;;;;;58.83;12.23;;;19.10;54.60;;;;;;5015385;28;20405;-70
2022/12/19 10:05:21;;;;;;;56.28;11.65;;;19.20;55.20;;;;;;5008746;28;20085;-70
2022/12/19 10:07:47;;;;;;;34.00;11.05;;;19.20;55.30;;;;;;5018439;28;20022;-70
2022/12/19 10:10:25;;;;;;;30.08;12.23;;;19.30;55.30;;;;;;5018668;28;20036;-70
2022/12/19 10:13:05;;;;;;;20.67;12.75;;;19.20;52.60;;;;;;5027978;28;20039;-72
2022/12/19 10:15:51;;;;;;;28.33;16.83;;;18.90;46.40;;;;;;5028528;28;20033;-73
2022/12/19 10:18:41;;;;;;;25.13;16.40;;;17.30;35.50;;;;;;5019930;28;20478;-72
2022/12/19 10:21:39;;;;;;;26.60;15.25;;;17.00;38.40;;;;;;5011280;28;20438;-72
2022/12/19 10:24:26;;;;;;;28.85;15.02;;;17.40;41.50;;;;;;5025310;28;20474;-71
2022/12/19 10:26:56;;;;;;;27.30;14.55;;;17.70;43.00;;;;;;5013906;28;20032;-71
2022/12/19 10:30:00;;;;;;;36.13;14.35;;;18.10;44.50;;;;;;5014859;28;20081;-71
2022/12/19 10:32:56;;;;;;;34.17;17.88;;;18.30;44.60;;;;;;5015423;28;20049;-71
2022/12/19 10:35:28;;;;;;;29.30;17.02;;;18.50;46.10;;;;;;5000447;28;20037;-71
2022/12/19 10:38:10;;;;;;;24.70;14.95;;;18.70;47.60;;;;;;5022045;28;20032;-71
2022/12/19 10:41:10;;;;;;;24.50;14.27;;;18.80;46.90;;;;;;5017844;28;20503;-72
2022/12/19 10:43:45;;;;;;;31.13;14.48;;;18.90;45.50;;;;;;5020434;28;20034;-71
2022/12/19 10:46:36;;;;;;;24.65;14.80;;;18.90;45.20;;;;;;5012693;28;20033;-71
2022/12/19 10:49:26;;;;;;;25.65;14.25;;;19.00;45.30;;;;;;5008726;28;20115;-71
2022/12/19 10:51:55;;;;;;;26.10;12.85;;;19.10;45.70;;;;;;5014263;28;20034;-72
2022/12/19 10:54:36;;;;;;;24.30;12.98;;;19.10;46.50;;;;;;5006372;28;20034;-72
2022/12/19 10:57:23;;;;;;;21.35;12.73;;;19.20;46.60;;;;;;5009759;28;20073;-71
2022/12/19 11:00:05;;;;;;;25.25;12.98;;;19.20;47.00;;;;;;5007519;28;20030;-71
2022/12/19 11:02:37;;;;;;;20.48;12.75;;;19.20;47.50;;;;;;5001713;28;20556;-72
2022/12/19 11:05:18;;;;;;;25.90;12.35;;;19.30;48.10;;;;;;5025429;28;20029;-71
2022/12/19 11:08:02;;;;;;;25.17;13.07;;;19.30;48.30;;;;;;5018819;28;20038;-71
2022/12/19 11:11:03;;;;;;;19.98;11.60;;;19.20;48.70;;;;;;5025014;28;20047;-71
2022/12/19 11:13:47;;;;;;;24.40;12.23;;;19.20;48.40;;;;;;5021529;28;20117;-71
2022/12/19 11:16:22;;;;;;;26.33;12.10;;;19.20;48.40;;;;;;5026547;28;20508;-71
2022/12/19 11:18:48;;;;;;;23.45;12.15;;;19.20;47.90;;;;;;5021097;28;20026;-71
2022/12/19 11:21:28;;;;;;;25.80;11.75;;;19.20;48.60;;;;;;5022011;28;20029;-71
2022/12/19 11:24:03;;;;;;;33.20;11.25;;;19.20;48.80;;;;;;5023231;28;20034;-70
2022/12/19 11:26:40;;;;;;;27.73;11.38;;;19.20;48.40;;;;;;5011789;28;20494;-71
2022/12/19 11:29:39;;;;;;;28.52;12.05;;;19.20;47.80;;;;;;5017388;28;20449;-71
2022/12/19 11:32:22;;;;;;;25.42;11.32;;;19.20;48.00;;;;;;5008358;28;20033;-71
2022/12/19 11:34:50;;;;;;;20.33;11.73;;;19.20;47.60;;;;;;5016977;28;20124;-69
2022/12/19 11:37:34;;;;;;;38.53;11.98;;;19.20;48.90;;;;;;5025001;28;20033;-71
2022/12/19 11:40:24;;;;;;;27.83;12.60;;;19.20;50.10;;;;;;5022679;28;20064;-70
2022/12/19 11:42:57;;;;;;;21.92;12.35;;;19.20;49.30;;;;;;5026116;28;20088;-70
2022/12/19 11:45:29;;;;;;;22.40;13.00;;;19.20;48.70;;;;;;5011928;28;20029;-70
2022/12/19 11:48:07;;;;;;;28.60;12.77;;;19.20;48.80;;;;;;5011009;28;20030;-71
2022/12/19 11:51:13;;;;;;;28.63;13.10;;;19.20;49.20;;;;;;5013876;28;20037;-72
2022/12/19 11:53:51;;;;;;;44.20;13.88;;;19.20;49.30;;;;;;5016095;28;20046;-71
2022/12/19 11:56:22;;;;;;;31.00;14.32;;;19.10;50.20;;;;;;5012803;28;20030;-72
2022/12/19 11:58:51;;;;;;;35.10;14.07;;;19.10;50.20;;;;;;5016028;28;20025;-71
2022/12/19 12:01:24;;;;;;;;;;;19.20;50.30;;;;;;5019686;28;20017;-72
2022/12/19 12:04:05;;;;;;;30.48;14.02;;;19.20;50.80;;;;;;5025457;28;19975;-71
2022/12/19 12:06:33;;;;;;;37.00;14.60;;;19.20;50.90;;;;;;5022353;28;20022;-71
2022/12/19 12:09:16;;;;;;;31.63;13.50;;;19.20;51.60;;;;;;5030677;28;20048;-72
2022/12/19 12:11:52;;;;;;;33.33;13.65;;;19.10;51.40;;;;;;5013426;28;20096;-71
2022/12/19 12:14:27;;;;;;;31.70;14.65;;;19.10;51.20;;;;;;4988814;28;20486;-70
2022/12/19 12:17:14;;;;;;;33.92;14.30;;;19.20;51.40;;;;;;5030250;28;20037;-71
2022/12/19 12:19:52;;;;;;;41.55;17.42;;;19.20;51.70;;;;;;5022127;28;20037;-71
2022/12/19 12:22:42;;;;;;;32.75;15.57;;;19.20;50.40;;;;;;5030424;28;20049;-71
2022/12/19 12:25:37;;;;;;;33.00;16.48;;;19.10;50.20;;;;;;5030833;28;20109;-71
2022/12/19 12:28:26;;;;;;;34.08;19.23;;;19.10;50.10;;;;;;5030772;28;20049;-71
2022/12/19 12:31:04;;;;;;;;;;;19.10;50.30;;;;;;5031254;28;20061;-72
2022/12/19 12:33:49;;;;;;;34.83;15.35;;;19.10;50.50;;;;;;5032571;28;20011;-71
2022/12/19 12:36:39;;;;;;;29.33;14.60;;;19.10;52.50;;;;;;5033261;28;20033;-71
2022/12/19 12:39:41;;;;;;;27.02;13.63;;;19.10;50.40;;;;;;5031230;28;20035;-71
2022/12/19 12:42:35;;;;;;;33.35;14.90;;;19.10;50.30;;;;;;5031657;28;20100;-71
2022/12/19 12:45:14;;;;;;;29.65;13.95;;;19.10;50.30;;;;;;5044730;22;20794;-78
2022/12/19 12:47:40;;;;;;;34.13;14.98;;;19.10;51.00;;;;;;5036003;28;20025;-76
2022/12/19 12:50:13;;;;;;;34.60;14.60;;;19.10;50.80;;;;;;5030719;28;20037;-76
2022/12/19 12:52:47;;;;;;;27.35;14.35;;;19.10;50.70;;;;;;5031788;28;20036;-76
2022/12/19 12:55:29;;;;;;;29.42;15.52;;;19.10;51.20;;;;;;5032543;28;20030;-77
2022/12/19 13:01:48;;;;;;;34.88;14.88;;;19.10;51.60;;;;;;5032378;28;20501;-76
2022/12/19 13:15:31;;;;;;;36.80;16.83;;;19.10;51.90;;;;;;5030765;28;20492;-77
2022/12/19 13:18:11;;;;;;;37.17;16.80;;;19.10;52.00;;;;;;5032004;28;20034;-77